San Acacia, NM

2:13 AM MDT on May 25, 2015 (GMT -0600)
Socorro | | Change Station
CLOSE
Current Station
Airport
Location: Socorro,
Elevation: 4849 ft
Nearby Weather Stations

Elev 4849 ft 34.02 °N, 106.90 °W | Updated 18 minutes ago

Clear
Clear
55 °F
Feels Like 55 °F
N
0
Wind Variable Wind from North

Today
High -- | Low -- °F
--% Chance of Precip.
Yesterday
High -- | Low -- °F
Precip. -- in
5:59 AM 8:09 PM
Waxing Crescent, 46% visible
Pressure 29.98 in
Visibility 10.0 miles
Clouds Clear
Dew Point 41 °F
Humidity 59%
Rainfall 0.00 in
Snow Depth Not available.
UV 0 out of 12
Pollen 4.60 out of 12
Air Quality Not available.
Flu Activity Local Activity
METAR KONM 250755Z AUTO 00000KT 10SM CLR 13/05 A2998 RMK AO2 T01270048

More Conditions Fewer Conditions

Pressure 29.98 in
Visibility 10.0 miles
Clouds Clear
Dew Point 41 °F
Humidity 59%
Rainfall 0.00 in
Snow Depth Not available.
UV 0 out of 12
Pollen 4.60 out of 12
Air Quality Not available.
Flu Activity Local Activity
METAR KONM 250755Z AUTO 00000KT 10SM CLR 13/05 A2998 RMK AO2 T01270048

More Conditions Fewer Conditions

10-Day Weather Forecast

Almanac

Astronomy

May. 25, 2015 Rise Set
Actual Time
Civil Twilight
Nautical Twilight
Astronomical Twilight
Moon
Length of Visible Light
Length of Day
Tomorrow will be .
, % of the Moon is Illuminated

Today's Extremes

State Highs State Lows

Community

WunderPhotos

Upload Photos

1,823,959 photos uploaded!

WunderBlogs® & News

Nearby

Air Quality

  Air Quality AQ Index Pollutant
Not available.

Snow Depth

Station Depth Elevation

Earthquake Activity

City Distance Mag. Time & Date
Minimum magnitude displayed is 2.5.

Coastal Water Temperatures

Place Temperature

Stations

Nearby Weather Stations

Station Location Temp. Windchill Dew Point Humidity Wind Precip. Elev Updated Type